Flight Track Log - Related Links

Times and Time Zones

All times are in EDT time to prevent confusion due to time zone crossing. See the AWE692 flight status page for this flight to view local times or setup timezone preferences in your user account.

Time Position Orientation Groundspeed Altitude Reporting Facility
EDT Latitude Longitude Course Direction KTS MPH feet Rate Location/Type
Sun 01:58:01 PM 33.4333 -111.9833 90° East 207 238 2,000  Level Phoenix TRACON
Sun 01:58:55 PM 33.4333 -111.9000 91° East 255 293 3,500 2,000 Climbing Phoenix TRACON
Sun 01:59:55 PM 33.4000 -111.8167 116° Southeast 278 320 5,800 2,550 Climbing Phoenix TRACON
Sun 02:00:55 PM 33.3333 -111.8333 192° South 260 299 8,600 2,479 Climbing Phoenix TRACON
Sun 02:01:56 PM 33.3167 -111.9167 257° West 276 318 10,800 1,671 Climbing Phoenix TRACON
Sun 02:03:15 PM 33.3381 -112.0306 283° West 313 360 12,500 1,660 Climbing Albuquerque Center
Sun 02:04:17 PM 33.3536 -112.1433 279° West 340 391 14,700 2,419 Climbing Albuquerque Center
Sun 02:05:19 PM 33.3739 -112.2814 280° West 348 400 17,500 2,304 Climbing Albuquerque Center
Sun 02:06:22 PM 33.3911 -112.3986 280° West 352 405 19,500 1,920 Climbing Albuquerque Center
Sun 02:07:24 PM 33.4089 -112.5183 280° West 362 417 21,500 1,839 Climbing Albuquerque Center
Sun 02:08:26 PM 33.4275 -112.6406 280° West 363 418 23,300 1,548 Climbing Albuquerque Center
Sun 02:09:28 PM 33.4439 -112.7619 279° West 366 421 24,700 1,306 Climbing Albuquerque Center
Sun 02:10:30 PM 33.4656 -112.8853 282° West 373 429 26,000 1,403 Climbing Albuquerque Center
Sun 02:11:32 PM 33.4897 -113.0106 283° West 384 442 27,600 1,597 Climbing Albuquerque Center
Sun 02:12:34 PM 33.5189 -113.1594 283° West 384 442 29,300 1,548 Climbing Albuquerque Center
Sun 02:13:36 PM 33.5417 -113.2814 283° West 383 441 30,800 1,306 Climbing Albuquerque Center
Sun 02:14:38 PM 33.5622 -113.4006 282° West 377 434 32,000 532 Climbing Albuquerque Center
Sun 02:15:40 PM 33.5842 -113.5158 283° West 368 423 31,900  Descending Albuquerque Center
Sun 02:16:42 PM 33.6061 -113.6306 283° West 362 417 32,000 48 Climbing Albuquerque Center
Sun 02:17:44 PM 33.6319 -113.7672 283° West 359 413 32,000  Level Albuquerque Center
Sun 02:18:46 PM 33.6500 -113.8831 281° West 358 412 32,000  Level Albuquerque Center
Sun 02:19:48 PM 33.6744 -114.0019 284° West 358 412 32,000  Level Albuquerque Center
Sun 02:20:50 PM 33.6986 -114.1214 284° West 363 418 32,000  Level Albuquerque Center
Sun 02:21:53 PM 33.7222 -114.2344 284° West 361 415 32,000  Level Albuquerque Center
Sun 02:22:55 PM 33.7456 -114.3489 284° West 358 412 32,000 -47 Level Albuquerque Center
Sun 02:24:00 PM 33.7761 -114.5006 284° West 358 412 31,900  Descending Los Angeles Center
Sun 02:25:02 PM 33.7986 -114.6144 283° West 356 410 32,000 48 Climbing Los Angeles Center
Sun 02:26:04 PM 33.8219 -114.7314 284° West 356 410 32,000 -48 Level Los Angeles Center
Sun 02:27:07 PM 33.8442 -114.8461 283° West 356 410 31,900  Descending Los Angeles Center
Sun 02:28:09 PM 33.8672 -114.9628 283° West 357 411 32,000 48 Climbing Los Angeles Center
Sun 02:29:11 PM 33.8894 -115.0778 283° West 357 411 32,000  Level Los Angeles Center
Sun 02:30:13 PM 33.9172 -115.2158 284° West 357 411 32,000  Level Los Angeles Center
Sun 02:31:15 PM 33.9375 -115.3283 282° West 351 404 32,000  Level Los Angeles Center
Sun 02:32:17 PM 33.9594 -115.4394 283° West 347 399 32,000  Level Los Angeles Center
Sun 02:33:20 PM 33.9808 -115.5519 283° West 347 399 32,000  Level Los Angeles Center
Sun 02:34:22 PM 34.0022 -115.6642 283° West 347 399 32,000  Level Los Angeles Center
Sun 02:35:24 PM 34.0264 -115.7972 282° West 344 396 32,000 -48 Level Los Angeles Center
Sun 02:36:26 PM 34.0461 -115.9092 282° West 344 396 31,900  Descending Los Angeles Center
Sun 02:37:28 PM 34.0672 -116.0181 283° West 339 390 32,000 48 Climbing Los Angeles Center
Sun 02:38:30 PM 34.0889 -116.1328 283° West 345 397 32,000  Level Los Angeles Center
Sun 02:39:33 PM 34.1097 -116.2467 282° West 349 402 32,000  Level Los Angeles Center
Sun 02:40:35 PM 34.1311 -116.3661 282° West 353 406 32,000  Level Los Angeles Center
Sun 02:41:37 PM 34.1517 -116.4831 282° West 356 410 32,000  Level Los Angeles Center
Sun 02:42:39 PM 34.1781 -116.6211 283° West 351 404 32,000  Level Los Angeles Center
Sun 02:43:41 PM 34.1989 -116.7400 282° West 360 414 32,000  Level Los Angeles Center
Sun 02:44:43 PM 34.2189 -116.8519 282° West 345 397 32,000  Level Los Angeles Center
Sun 02:45:46 PM 34.2394 -116.9653 282° West 343 395 32,000  Level Los Angeles Center
Sun 02:46:48 PM 34.2603 -117.0817 282° West 350 403 32,000  Level Los Angeles Center
Sun 02:47:50 PM 34.2836 -117.2161 282° West 352 405 32,000  Level Los Angeles Center
Sun 02:48:52 PM 34.3042 -117.3322 282° West 353 406 32,000  Level Los Angeles Center
Sun 02:49:54 PM 34.3244 -117.4489 282° West 353 406 32,000  Level Los Angeles Center
Sun 02:50:56 PM 34.3442 -117.5675 281° West 358 412 32,000  Level Los Angeles Center
Sun 02:51:58 PM 34.3683 -117.7083 282° West 358 412 32,000  Level Los Angeles Center
Sun 02:53:01 PM 34.3856 -117.8139 281° West 364 419 32,000  Level Los Angeles Center
Sun 02:54:03 PM 34.4064 -117.9331 282° West 363 418 32,000  Level Los Angeles Center
Sun 02:55:05 PM 34.4481 -118.0733 290° West 374 430 32,000  Level Los Angeles Center
Sun 02:56:07 PM 34.5017 -118.1700 304° West 378 435 32,000  Level Los Angeles Center
Sun 02:57:09 PM 34.5728 -118.2972 304° West 382 440 32,000  Level Los Angeles Center
Sun 02:58:12 PM 34.6300 -118.4008 304° West 373 429 32,000  Level Los Angeles Center
Sun 02:59:14 PM 34.6900 -118.5092 304° West 386 444 32,000  Level Los Angeles Center
Sun 03:00:16 PM 34.7492 -118.6175 304° West 385 443 32,000  Level Los Angeles Center
Sun 03:01:18 PM 34.8069 -118.7228 304° West 380 437 32,000  Level Los Angeles Center
Sun 03:02:20 PM 34.8772 -118.8506 304° West 384 442 32,000  Level Los Angeles Center
Sun 03:03:23 PM 34.9294 -118.9447 304° West 380 437 32,000  Level Los Angeles Center
Sun 03:04:25 PM 34.9875 -119.0503 304° West 378 435 32,000  Level Los Angeles Center
Sun 03:05:27 PM 35.0583 -119.1794 304° West 379 436 32,000  Level Los Angeles Center
Sun 03:06:29 PM 35.1181 -119.2881 304° West 382 440 32,000  Level Los Angeles Center
Sun 03:07:31 PM 35.1778 -119.3950 304° West 381 438 32,000  Level Los Angeles Center
Sun 03:08:33 PM 35.2361 -119.5033 303° West 381 438 32,000  Level Los Angeles Center
Sun 03:09:36 PM 35.2950 -119.6111 304° West 382 440 32,000  Level Los Angeles Center
Sun 03:10:38 PM 35.3636 -119.7408 303° West 379 436 32,000  Level Los Angeles Center
Sun 03:11:40 PM 35.4203 -119.8481 303° West 379 436 32,000  Level Los Angeles Center
Sun 03:12:42 PM 35.4778 -119.9564 303° West 379 436 32,000 532 Level Los Angeles Center
Sun 03:13:44 PM 35.5200 -120.0714 294° West 373 429 33,100 1,210 Climbing Los Angeles Center
Sun 03:14:46 PM 35.5436 -120.2042 282° West 371 427 34,500 1,056 Climbing Los Angeles Center
Sun 03:15:49 PM 35.5639 -120.3217 282° West 361 415 35,300 672 Climbing Los Angeles Center
Sun 03:16:51 PM 35.5836 -120.4436 281° West 362 417 35,900 339 Climbing Los Angeles Center
Sun 03:17:53 PM 35.6036 -120.5633 282° West 362 417 36,000 48 Climbing Los Angeles Center
Sun 03:18:55 PM 35.6269 -120.7072 281° West 361 415 36,000  Level Los Angeles Center
Sun 03:19:57 PM 35.6472 -120.8356 281° West 361 415 36,000  Level Los Angeles Center
Sun 03:20:59 PM 35.6661 -120.9539 281° West 360 414 36,000  Level Los Angeles Center
Sun 03:22:02 PM 35.6856 -121.0733 281° West 360 414 36,000  Level Los Angeles Center
Sun 03:23:04 PM 35.7047 -121.1950 281° West 360 414 36,000  Level Los Angeles Center
Sun 03:24:06 PM 35.7247 -121.3150 282° West 360 414 36,000  Level Los Angeles Center
Sun 03:25:08 PM 35.7461 -121.4606 280° West 360 414 36,000  Level Los Angeles Center
Sun 03:26:23 PM 35.7694 -121.6061 281° West 361 415 36,000  Level Oakland Center
Sun 03:27:24 PM 35.7886 -121.7281 281° West 362 417 36,000  Level Oakland Center
Sun 03:28:26 PM 35.8075 -121.8503 281° West 363 418 36,000  Level Oakland Center
Sun 03:29:27 PM 35.8264 -121.9722 281° West 363 418 36,000  Level Oakland Center
Sun 03:30:28 PM 35.8447 -122.0944 281° West 364 419 36,000  Level Oakland Center
Sun 03:31:30 PM 35.8619 -122.2178 280° West 365 420 36,000  Level Oakland Center
Sun 03:32:31 PM 35.8831 -122.3653 280° West 365 420 36,000  Level Oakland Center
Sun 03:33:33 PM 35.9008 -122.4886 280° West 365 420 36,000  Level Oakland Center
Sun 03:34:34 PM 35.9192 -122.6103 281° West 365 420 36,000  Level Oakland Center
Sun 03:35:36 PM 35.9372 -122.7339 280° West 366 421 36,000  Level Oakland Center
Sun 03:36:37 PM 35.9556 -122.8578 280° West 366 421 36,000  Level Oakland Center
Sun 03:37:38 PM 35.9728 -122.9831 280° West 368 423 36,000  Level Oakland Center
Sun 03:38:40 PM 35.9936 -123.1236 280° West 373 429 36,000  Level Oakland Center
Sun 03:39:41 PM 36.0097 -123.2481 279° West 370 426 36,000  Level Oakland Center
Sun 03:40:43 PM 36.0267 -123.3744 279° West 370 426 36,000 -49 Level Oakland Center
Sun 03:41:44 PM 36.0456 -123.5019 280° West 371 427 35,900  Descending Oakland Center
Sun 03:42:46 PM 36.0625 -123.6289 279° West 372 428 36,000 49 Climbing Oakland Center
Sun 03:43:47 PM 36.0792 -123.7564 279° West 373 429 36,000  Level Oakland Center
Sun 03:44:49 PM 36.0961 -123.8836 279° West 373 429 36,000  Level Oakland Center
Sun 03:45:50 PM 36.1164 -124.0375 279° West 376 433 36,000  Level Oakland Center
Sun 03:46:52 PM 36.1344 -124.1661 280° West 379 436 36,000  Level Oakland Center
Sun 03:47:53 PM 36.1508 -124.2931 279° West 379 436 36,000  Level Oakland Center
Sun 03:48:55 PM 36.1672 -124.4203 279° West 378 435 36,000  Level Oakland Center
Sun 03:49:56 PM 36.1819 -124.5456 278° West 374 430 36,000  Level Oakland Center
Sun 03:50:58 PM 36.2003 -124.6742 280° West 377 434 36,000  Level Oakland Center
Sun 03:51:59 PM 36.2156 -124.8028 278° West 378 435 36,000  Level Oakland Center
Sun 03:53:01 PM 36.2319 -124.9297 279° West 377 434 36,000  Level Oakland Center
Sun 03:54:02 PM 36.2497 -125.0833 278° West 377 434 36,000  Level Oakland Center
Sun 03:55:04 PM 36.2653 -125.2111 279° West 377 434 36,000  Level Oakland Center
Sun 03:56:06 PM 36.2814 -125.3419 279° West 381 438 36,000  Level Oakland Center
Sun 03:57:07 PM 36.2964 -125.4792 278° West 380 437 36,000  Level Oakland Center
Sun 03:58:09 PM 36.3125 -125.6022 279° West 381 438 36,000  Level Oakland Center
Sun 03:59:10 PM 36.3300 -125.7347 279° West 382 440 36,000  Level Oakland Center
Sun 04:00:12 PM 36.3461 -125.8658 279° West 383 441 36,000  Level Oakland Center
Sun 04:01:13 PM 36.3611 -125.9972 278° West 383 441 36,000 -49 Level Oakland Center
Sun 04:02:15 PM 36.3792 -126.1536 278° West 383 441 35,900  Descending Oakland Center
Sun 04:03:17 PM 36.3936 -126.2839 278° West 383 441 36,000 49 Climbing Oakland Center
Sun 04:04:18 PM 36.4081 -126.4136 278° West 383 441 36,000  Level Oakland Center
Sun 04:05:20 PM 36.4239 -126.5447 279° West 383 441 36,000  Level Oakland Center
Sun 04:06:21 PM 36.4389 -126.6758 278° West 383 441 36,000  Level Oakland Center
Sun 04:07:23 PM 36.4531 -126.8161 277° West 383 441 36,000 -48 Level Oakland Center
Sun 04:08:25 PM 36.4642 -126.9383 276° West 383 441 35,900  Descending Oakland Center
Sun 04:09:26 PM 36.4369 -127.0700 256° West 391 450 36,000 Climbing Oakland Center
Sun 04:21:53 PM 36.4667 -126.9333 250° West 373 429 36,000  Level Oakland Oceanic (ODAPS)
Sun 05:14:18 PM 34.0167 -134.3500 246° West 404 465 36,000  Level Oakland Oceanic (ODAPS)
Sun 06:11:52 PM 31.1833 -141.2833 242° Southwest 462 532 36,000  Level Oakland Oceanic (ODAPS)
Sun 07:02:57 PM 27.9000 -147.9667 239° Southwest 472 543 36,000  Level Oakland Oceanic (ODAPS)
Sun 07:57:30 PM 24.0500 -154.6833 236° Southwest 460 529 36,000  Level Honolulu Center
Sun 07:58:00 PM 23.9527 -154.8124 236° Southwest 472 543 36,000  Level FlightAware Transoceanic
Sun 07:58:30 PM 23.9667 -154.8000 232° Southwest 480 552 36,000  Level Honolulu Center
Sun 07:59:00 PM 23.8830 -154.9245 236° Southwest 472 543 36,000  Level FlightAware Transoceanic
Sun 07:59:31 PM 23.8833 -154.9000 228° Southwest 470 541 36,000  Level Honolulu Center
Sun 08:00:00 PM 23.8133 -155.0365 236° Southwest 472 543 36,000  Level FlightAware Transoceanic
Sun 08:00:30 PM 23.7833 -154.9833 217° Southwest 460 529 36,000  Level Honolulu Center
Sun 08:01:00 PM 23.7434 -155.1484 236° Southwest 472 543 36,000  Level FlightAware Transoceanic
Sun 08:01:31 PM 23.7000 -155.0833 228° Southwest 450 518 36,000  Level Honolulu Center
Sun 08:02:00 PM 23.6735 -155.2602 236° Southwest 472 543 36,000  Level FlightAware Transoceanic
Sun 08:02:31 PM 23.6000 -155.1833 223° Southwest 460 529 36,000  Level Honolulu Center
Sun 08:03:31 PM 23.5167 -155.2833 228° Southwest 460 529 36,000  Level Honolulu Center
Sun 08:04:31 PM 23.4333 -155.3833 228° Southwest 450 518 36,000  Level Honolulu Center
Sun 08:05:31 PM 23.3333 -155.4667 217° Southwest 460 529 36,000  Level Honolulu Center
Sun 08:06:31 PM 23.2333 -155.5667 223° Southwest 460 529 36,000  Level Honolulu Center
Sun 08:07:31 PM 23.1500 -155.6667 228° Southwest 460 529 36,000 -248 Level Honolulu Center
Sun 08:08:32 PM 23.0833 -155.7833 238° Southwest 440 506 35,500  Descending Honolulu Center
Sun 08:10:32 PM 23.0833 -156.0500 270° West 460 529 36,000 167 Climbing Honolulu Center
Sun 08:11:32 PM 23.0833 -156.2000 270° West 450 518 36,000  Level Honolulu Center
Sun 08:12:32 PM 23.0167 -156.3000 234° Southwest 480 552 36,000  Level Honolulu Center
Sun 08:13:32 PM 22.9167 -156.3833 218° Southwest 460 529 36,000  Level Honolulu Center
Sun 08:14:33 PM 22.8167 -156.4667 218° Southwest 460 529 36,000 -595 Level Honolulu Center
Sun 08:15:33 PM 22.7167 -156.5333 212° Southwest 450 518 34,800 -1,000 Descending Honolulu Center
Sun 08:16:33 PM 22.6167 -156.6000 212° Southwest 470 541 34,000 -400 Descending Honolulu Center
Sun 08:17:33 PM 22.5000 -156.6833 213° Southwest 480 552 34,000  Level Honolulu Center
Sun 08:18:33 PM 22.3833 -156.7833 218° Southwest 480 552 34,000 -850 Level Honolulu Center
Sun 08:19:33 PM 22.2833 -156.8500 212° Southwest 460 529 32,300 -1,750 Descending Honolulu Center
Sun 08:20:33 PM 22.1833 -156.9333 218° Southwest 450 518 30,500 -1,850 Descending Honolulu Center
Sun 08:21:33 PM 22.0833 -157.0167 218° Southwest 440 506 28,600 -1,884 Descending Honolulu Center
Sun 08:22:34 PM 22.0000 -157.1167 228° Southwest 430 495 26,700 -1,983 Descending Honolulu Center
Sun 08:23:34 PM 21.9000 -157.2000 218° Southwest 410 472 24,600 -2,000 Descending Honolulu Center
Sun 08:24:34 PM 21.8000 -157.2667 212° Southwest 410 472 22,700 -2,100 Descending Honolulu Center
Sun 08:25:34 PM 21.7167 -157.3167 209° Southwest 400 460 20,400 -2,200 Descending Honolulu Center
Sun 08:26:34 PM 21.6167 -157.3833 212° Southwest 390 449 18,300 -2,200 Descending Honolulu Center
Sun 08:27:34 PM 21.5167 -157.4333 205° Southwest 370 426 16,000 -2,033 Descending Honolulu Center
Sun 08:28:35 PM 21.4333 -157.4833 209° Southwest 360 414 14,200 -1,835 Descending Honolulu Center
Sun 08:29:35 PM 21.3833 -157.5667 237° Southwest 340 391 12,300 -1,750 Descending Honolulu Center
Sun 08:30:35 PM 21.3500 -157.6667 250° West 320 368 10,700 -1,550 Descending Honolulu Center
Sun 08:31:35 PM 21.3333 -157.7500 258° West 290 334 9,200 -1,350 Descending Honolulu Center
Sun 08:32:35 PM 21.3000 -157.8333 247° West 280 322 8,000 -600 Descending Honolulu Center
Sun 08:33:35 PM 21.2833 -157.9167 258° West 310 357 8,000 -1,100 Level Honolulu Center
Sun 08:34:35 PM 21.2500 -157.9833 242° Southwest 290 334 5,800 -1,700 Descending Honolulu Center
Sun 08:35:35 PM 21.2667 -158.0667 282° West 230 265 4,600 -1,140 Descending Honolulu Center
Sun 08:36:36 PM 21.2833 -158.1167 290° West 220 253 3,500 -1,050 Descending Honolulu Center
Sun 08:37:35 PM 21.3167 -158.0667 54° Northeast 200 230 2,500 -950 Descending Honolulu Center
Sun 08:38:36 PM 21.3167 -158.0167 90° East 170 196 1,600 -843 Descending Honolulu Center
Sun 08:39:36 PM 21.3167 -157.9667 90° East 130 150 800 -800 Descending Honolulu Center

Login

Don't have an account? Register now (free) for customized features, flight alerts, and more!